createdAt,value
2022-10-04T00:01:58.899Z,101884.81
2022-10-04T00:04:27.537Z,101888.22
2022-10-04T00:06:58.849Z,101894.38
2022-10-04T00:09:28.671Z,101879.28
2022-10-04T00:11:56.949Z,101847.34
2022-10-04T00:14:27.242Z,101886.31
2022-10-04T00:16:56.548Z,101871.91
2022-10-04T00:19:45.342Z,101864.63
2022-10-04T00:22:18.504Z,101869.16
2022-10-04T00:25:23.165Z,101858.38
2022-10-04T00:28:16.498Z,101853.91
2022-10-04T00:30:44.521Z,101853.06
2022-10-04T00:33:13.852Z,101848.38
2022-10-04T00:35:51.744Z,101856.28
2022-10-04T00:38:26.068Z,101858.13
2022-10-04T00:40:57.251Z,101855.31
2022-10-04T00:43:26.407Z,101850.97
2022-10-04T00:45:55.696Z,101849.16
2022-10-04T00:48:37.007Z,101850.03
2022-10-04T00:51:10.465Z,101840.22
2022-10-04T00:53:42.434Z,101836.66
2022-10-04T00:56:12.029Z,101833.19
2022-10-04T00:58:45.900Z,101838.56
2022-10-04T01:01:13.811Z,101839.69
2022-10-04T01:03:44.013Z,101841.44
2022-10-04T01:06:12.154Z,101836.91
2022-10-04T01:08:41.365Z,101833.34
2022-10-04T01:11:11.519Z,101833.34
2022-10-04T01:13:40.664Z,101831.53
2022-10-04T01:16:12.364Z,101836.91
2022-10-04T01:18:40.416Z,101836.91
2022-10-04T01:21:10.926Z,101837.84
2022-10-04T01:23:42.608Z,101841.44
2022-10-04T01:26:38.550Z,101837.84
2022-10-04T01:29:11.614Z,101836.03
2022-10-04T01:31:40.616Z,101840.66
2022-10-04T01:34:08.902Z,101833.41
2022-10-04T01:36:37.009Z,101829.94
2022-10-04T01:39:06.432Z,101821.19
2022-10-04T01:41:39.871Z,101819.28
2022-10-04T01:44:07.852Z,101806.38
2022-10-04T01:46:37.110Z,101810.44
2022-10-04T01:49:06.879Z,101806.97
2022-10-04T01:51:35.917Z,101804.28
2022-10-04T01:54:05.385Z,101799.78
2022-10-04T01:56:38.556Z,101796.09
2022-10-04T01:59:07.408Z,101789.00
2022-10-04T02:01:36.730Z,101781.09
2022-10-04T02:04:05.732Z,101780.06
2022-10-04T02:06:38.392Z,101773.91
2022-10-04T02:09:09.114Z,101784.56
2022-10-04T02:11:41.463Z,101772.88
2022-10-04T02:14:15.711Z,101762.53
2022-10-04T02:16:44.284Z,101764.97
2022-10-04T02:19:12.243Z,101757.75
2022-10-04T02:21:40.464Z,101758.63
2022-10-04T02:24:08.753Z,101753.25
2022-10-04T02:26:38.180Z,101748.72
2022-10-04T02:29:06.208Z,101745.94
2022-10-04T02:31:51.687Z,101737.88
2022-10-04T02:34:19.989Z,101738.72
2022-10-04T02:36:52.049Z,101736.13
2022-10-04T02:39:22.828Z,101730.66
2022-10-04T02:41:53.124Z,101682.91
2022-10-04T02:44:22.401Z,101727.00
2022-10-04T02:46:52.529Z,101721.53
2022-10-04T02:49:24.052Z,101724.22
2022-10-04T02:51:53.066Z,101722.28
2022-10-04T02:54:27.604Z,101722.50
2022-10-04T02:56:57.994Z,101726.25
2022-10-04T02:59:25.992Z,101704.38
2022-10-04T03:01:54.807Z,101715.56
2022-10-04T03:04:23.540Z,101705.75
2022-10-04T03:06:51.452Z,101694.88
2022-10-04T03:09:20.786Z,101705.66
2022-10-04T03:11:49.712Z,101703.84
2022-10-04T03:14:21.019Z,101702.13
2022-10-04T03:16:49.960Z,101708.34
2022-10-04T03:19:18.437Z,101702.19
2022-10-04T03:21:49.149Z,101673.78
2022-10-04T03:24:19.204Z,101706.69
2022-10-04T03:26:47.829Z,101693.72
2022-10-04T03:29:16.193Z,101696.41
2022-10-04T03:31:46.569Z,101690.16
2022-10-04T03:34:15.281Z,101698.13
2022-10-04T03:36:43.274Z,101693.81
2022-10-04T03:39:11.916Z,101693.03
2022-10-04T03:41:40.586Z,101685.06
2022-10-04T03:44:08.883Z,101676.66
2022-10-04T03:46:36.932Z,101658.09
2022-10-04T03:49:06.255Z,101691.47
2022-10-04T03:51:34.149Z,101691.41
2022-10-04T03:54:02.844Z,101687.66
2022-10-04T03:56:32.068Z,101682.38
2022-10-04T03:58:59.967Z,101680.53
2022-10-04T04:01:35.608Z,101689.56
2022-10-04T04:04:07.941Z,101678.91
2022-10-04T04:06:38.986Z,101676.31
2022-10-04T04:09:06.871Z,101670.44
2022-10-04T04:11:34.746Z,101673.13
2022-10-04T04:14:04.728Z,101663.59
2022-10-04T04:16:32.704Z,101665.41
2022-10-04T04:19:02.143Z,101665.50
2022-10-04T04:21:31.462Z,101661.38
2022-10-04T04:24:00.763Z,101647.38
2022-10-04T04:26:35.020Z,101658.59
2022-10-04T04:29:06.209Z,101658.69
2022-10-04T04:31:35.229Z,101651.81
2022-10-04T04:34:04.205Z,101669.13
2022-10-04T04:36:34.530Z,101659.34
2022-10-04T04:39:27.678Z,101657.34
2022-10-04T04:41:55.595Z,101659.25
2022-10-04T04:44:23.494Z,101660.91
2022-10-04T04:46:51.552Z,101652.06
2022-10-04T04:49:19.517Z,101651.94
2022-10-04T04:51:51.549Z,101660.91
2022-10-04T04:54:24.009Z,101661.78
2022-10-04T04:56:52.900Z,101660.91
2022-10-04T04:59:21.770Z,101654.63
2022-10-04T05:01:50.327Z,101653.53
2022-10-04T05:04:20.005Z,101640.16
2022-10-04T05:06:50.357Z,101625.66
2022-10-04T05:09:27.241Z,101622.84
2022-10-04T05:11:56.074Z,101622.97
2022-10-04T05:14:24.037Z,101618.34
2022-10-04T05:16:52.929Z,101622.97
2022-10-04T05:19:22.230Z,101623.13
2022-10-04T05:21:52.804Z,101617.47
2022-10-04T05:24:23.449Z,101591.06
2022-10-04T05:26:52.128Z,101616.38
2022-10-04T05:29:20.872Z,101613.66
2022-10-04T05:31:50.210Z,101608.38
2022-10-04T05:34:20.708Z,101601.34
2022-10-04T05:36:58.271Z,101609.63
2022-10-04T05:39:29.005Z,101596.94
2022-10-04T05:42:02.807Z,101613.88
2022-10-04T05:44:32.496Z,101604.06
2022-10-04T05:47:00.771Z,101613.78
2022-10-04T05:49:31.473Z,101613.78
2022-10-04T05:52:01.255Z,101607.53
2022-10-04T05:54:31.180Z,101601.66
2022-10-04T05:57:15.864Z,101615.41
2022-10-04T05:59:52.118Z,101622.63
2022-10-04T06:02:26.066Z,101577.81
2022-10-04T06:05:09.661Z,101605.72
2022-10-04T06:07:42.281Z,101594.84
2022-10-04T06:10:20.715Z,101582.06
2022-10-04T06:12:53.602Z,101600.03
2022-10-04T06:15:58.584Z,101581.38
2022-10-04T06:18:46.036Z,101591.78
2022-10-04T06:21:21.737Z,101586.41
2022-10-04T06:23:55.228Z,101588.13
2022-10-04T06:26:25.625Z,101588.88
2022-10-04T06:28:56.472Z,101569.47
2022-10-04T06:32:14.491Z,101563.13
2022-10-04T06:35:02.029Z,101571.09
2022-10-04T06:37:55.110Z,101587.72
2022-10-04T06:41:04.872Z,101592.00
2022-10-04T06:43:50.036Z,101584.88
2022-10-04T06:46:20.025Z,101587.44
2022-10-04T06:49:07.581Z,101578.25
2022-10-04T06:51:44.767Z,101568.28
2022-10-04T06:54:21.220Z,101571.81
2022-10-04T06:57:01.002Z,101528.25
2022-10-04T06:59:43.404Z,101560.75
2022-10-04T07:02:14.415Z,101551.31
2022-10-04T07:07:37.079Z,101558.53
2022-10-04T07:10:17.576Z,101567.38
2022-10-04T07:12:49.038Z,101516.81
2022-10-04T07:15:20.430Z,101566.03
2022-10-04T07:17:49.220Z,101557.94
2022-10-04T07:20:20.622Z,101557.56
2022-10-04T07:22:51.270Z,101563.72
2022-10-04T07:25:21.973Z,101559.00
2022-10-04T07:28:14.960Z,101542.38
2022-10-04T07:30:45.925Z,101548.69
2022-10-04T07:33:15.991Z,101552.72
2022-10-04T07:35:46.097Z,101561.38
2022-10-04T07:38:17.763Z,101555.69
2022-10-04T07:41:05.032Z,101552.56
2022-10-04T07:43:34.267Z,101524.16
2022-10-04T07:46:05.024Z,101535.75
2022-10-04T07:48:33.113Z,101539.38
2022-10-04T07:51:04.543Z,101551.28
2022-10-04T07:53:33.477Z,101558.94
2022-10-04T07:56:07.807Z,101561.34
2022-10-04T07:58:44.847Z,101549.78
2022-10-04T08:01:21.188Z,101551.31
2022-10-04T08:04:06.741Z,101536.00
2022-10-04T08:06:36.759Z,101562.50
2022-10-04T08:09:19.202Z,101560.22
2022-10-04T08:11:50.210Z,101555.19
2022-10-04T08:14:27.102Z,101547.44
2022-10-04T08:17:02.229Z,101558.53
2022-10-04T08:19:40.899Z,101560.09
2022-10-04T08:22:19.420Z,101548.94
2022-10-04T08:24:54.206Z,101556.88
2022-10-04T08:27:32.013Z,101561.19
2022-10-04T08:30:04.894Z,101556.44
2022-10-04T08:32:51.084Z,101553.53
2022-10-04T08:35:34.406Z,101567.44
2022-10-04T08:38:19.769Z,101568.13
2022-10-04T08:41:29.050Z,101560.22
2022-10-04T08:44:13.287Z,101559.34
2022-10-04T08:47:04.148Z,101555.78
2022-10-04T08:49:53.621Z,101574.16
2022-10-04T08:52:43.267Z,101569.63
2022-10-04T08:55:32.289Z,101568.00
2022-10-04T08:58:18.025Z,101577.59
2022-10-04T09:00:57.308Z,101583.97
2022-10-04T09:03:45.389Z,101581.25
2022-10-04T09:06:19.856Z,101570.56
2022-10-04T09:09:27.008Z,101570.56
2022-10-04T09:12:36.287Z,101531.28
2022-10-04T09:15:27.593Z,101571.63
2022-10-04T09:17:56.459Z,101569.00
2022-10-04T09:20:38.680Z,101566.41
2022-10-04T09:23:22.716Z,101566.63
2022-10-04T09:25:56.478Z,101559.78
2022-10-04T09:28:54.837Z,101563.13
2022-10-04T09:31:49.043Z,101566.91
2022-10-04T09:34:35.056Z,101564.31
2022-10-04T09:37:21.065Z,101553.84
2022-10-04T09:40:28.711Z,101557.44
2022-10-04T09:43:19.085Z,101554.06
2022-10-04T09:46:04.821Z,101549.31
2022-10-04T09:48:37.070Z,101551.63
2022-10-04T09:51:34.604Z,101550.53
2022-10-04T09:54:23.941Z,101550.88
2022-10-04T09:57:06.792Z,101537.34
2022-10-04T10:00:10.504Z,101548.81
2022-10-04T10:02:58.930Z,101545.16
2022-10-04T10:05:32.245Z,101556.69
2022-10-04T10:08:02.041Z,101558.78
2022-10-04T10:10:52.860Z,101562.31
2022-10-04T10:13:43.164Z,101567.97
2022-10-04T10:16:30.825Z,101580.25
2022-10-04T10:19:14.873Z,101570.22
2022-10-04T10:21:52.197Z,101562.97
2022-10-04T10:24:33.779Z,101565.88
2022-10-04T10:27:08.473Z,101570.19
2022-10-04T10:29:46.780Z,101569.13
2022-10-04T10:32:39.688Z,101565.34
2022-10-04T10:35:26.494Z,101554.53
2022-10-04T10:38:04.929Z,101557.88
2022-10-04T10:40:44.026Z,101557.66
2022-10-04T10:43:42.250Z,101555.69
2022-10-04T10:46:31.299Z,101551.56
2022-10-04T10:49:21.963Z,101551.22
2022-10-04T10:52:27.549Z,101530.00
2022-10-04T10:55:28.034Z,101532.25
2022-10-04T10:58:25.553Z,101519.06
2022-10-04T11:00:54.579Z,101505.66
2022-10-04T11:03:38.004Z,101498.09
2022-10-04T11:06:26.369Z,101499.09
2022-10-04T11:09:17.722Z,101505.56
2022-10-04T11:11:59.974Z,101490.97
2022-10-04T11:14:37.021Z,101512.63
2022-10-04T11:17:17.086Z,101516.38
2022-10-04T11:20:11.536Z,101523.59
2022-10-04T11:23:24.105Z,101496.84
2022-10-04T11:26:24.540Z,101466.28
2022-10-04T11:28:57.822Z,101456.22
2022-10-04T11:31:55.888Z,101450.59
2022-10-04T11:34:47.097Z,101461.66
2022-10-04T11:37:16.783Z,101481.34
2022-10-04T11:39:55.105Z,101488.56
2022-10-04T11:42:31.542Z,101474.03
2022-10-04T11:45:15.321Z,101481.22
2022-10-04T11:47:47.677Z,101488.75
2022-10-04T11:50:26.168Z,101514.09
2022-10-04T11:53:27.304Z,101511.34
2022-10-04T11:56:28.190Z,101511.63
2022-10-04T11:59:04.363Z,101488.66
2022-10-04T12:02:04.362Z,101497.09
2022-10-04T12:05:14.672Z,101477.72
2022-10-04T12:07:50.995Z,101482.81
2022-10-04T12:10:23.948Z,101476.13
2022-10-04T12:13:16.373Z,101483.03
2022-10-04T12:16:06.611Z,101478.13
2022-10-04T12:18:45.547Z,101475.16
2022-10-04T12:21:22.353Z,101473.34
2022-10-04T12:24:20.059Z,101489.84
2022-10-04T12:27:31.262Z,101492.59
2022-10-04T12:30:24.226Z,101511.06
2022-10-04T12:33:03.129Z,101506.34
2022-10-04T12:35:37.009Z,101485.31
2022-10-04T12:38:19.674Z,101490.38
2022-10-04T12:40:49.269Z,101486.28
2022-10-04T12:43:19.978Z,101490.22
2022-10-04T12:45:56.997Z,101467.44
2022-10-04T12:48:29.056Z,101475.19
2022-10-04T12:51:09.556Z,101475.41
2022-10-04T12:53:44.485Z,101479.22
2022-10-04T12:56:21.945Z,101468.66
2022-10-04T12:58:59.889Z,101473.34
2022-10-04T13:01:30.693Z,101468.00
2022-10-04T13:04:15.990Z,101437.47
2022-10-04T13:06:52.061Z,101461.75
2022-10-04T13:09:21.538Z,101450.63
2022-10-04T13:11:56.779Z,101458.28
2022-10-04T13:14:34.142Z,101446.84
2022-10-04T13:17:27.714Z,101458.63
2022-10-04T13:19:56.870Z,101444.47
2022-10-04T13:22:55.488Z,101436.34
2022-10-04T13:25:39.277Z,101457.50
2022-10-04T13:28:07.924Z,101421.91
2022-10-04T13:30:38.993Z,101453.31
2022-10-04T13:33:12.396Z,101452.44
2022-10-04T13:35:42.061Z,101448.03
2022-10-04T13:38:25.306Z,101453.53
2022-10-04T13:41:03.188Z,101458.72
2022-10-04T13:43:55.026Z,101470.53
2022-10-04T13:46:28.029Z,101451.81
2022-10-04T13:49:06.263Z,101455.50
2022-10-04T13:51:44.971Z,101444.81
2022-10-04T13:54:40.750Z,101444.81
2022-10-04T13:57:21.600Z,101427.09
2022-10-04T13:59:53.685Z,101443.06
2022-10-04T14:02:40.577Z,101422.31
2022-10-04T14:05:25.135Z,101431.50
2022-10-04T14:08:17.309Z,101420.34
2022-10-04T14:11:04.654Z,101410.25
2022-10-04T14:13:45.281Z,101421.84
2022-10-04T14:16:23.518Z,101415.44
2022-10-04T14:19:29.403Z,101396.53
2022-10-04T14:22:24.772Z,101415.59
2022-10-04T14:25:08.569Z,101397.16
2022-10-04T14:27:51.380Z,101406.75
2022-10-04T14:30:23.228Z,101417.56
2022-10-04T14:33:26.150Z,101407.97
2022-10-04T14:36:03.145Z,101422.94
2022-10-04T14:38:40.102Z,101425.00
2022-10-04T14:41:59.321Z,101429.69
2022-10-04T14:45:15.418Z,101434.56
2022-10-04T14:48:26.213Z,101418.31
2022-10-04T14:51:16.185Z,101450.41
2022-10-04T14:53:52.656Z,101436.00
2022-10-04T14:56:28.625Z,101440.28
2022-10-04T14:59:03.709Z,101443.00
2022-10-04T15:01:33.112Z,101429.81
2022-10-04T15:04:19.913Z,101389.97
2022-10-04T15:06:49.864Z,101435.75
2022-10-04T15:09:46.600Z,101435.66
2022-10-04T15:13:09.856Z,101431.09
2022-10-04T15:15:44.802Z,101436.75
2022-10-04T15:18:23.344Z,101434.41
2022-10-04T15:20:55.462Z,101425.75
2022-10-04T15:23:40.424Z,101419.63
2022-10-04T15:26:27.668Z,101432.38
2022-10-04T15:29:04.499Z,101437.38
2022-10-04T15:31:35.286Z,101431.03
2022-10-04T15:34:06.616Z,101429.63
2022-10-04T15:37:08.083Z,101433.44
2022-10-04T15:39:53.440Z,101441.97
2022-10-04T15:42:25.803Z,101434.22
2022-10-04T15:45:21.288Z,101424.97
2022-10-04T15:48:02.972Z,101432.97
2022-10-04T15:50:32.085Z,101422.06
2022-10-04T15:53:20.462Z,101406.81
2022-10-04T15:56:13.417Z,101398.84
2022-10-04T15:58:55.241Z,101406.06
2022-10-04T16:01:39.487Z,101393.44
2022-10-04T16:04:32.530Z,101402.50
2022-10-04T16:07:02.215Z,101395.09
2022-10-04T16:09:37.494Z,101384.75
2022-10-04T16:12:20.039Z,101403.09
2022-10-04T16:15:00.367Z,101400.59
2022-10-04T16:17:46.746Z,101320.19
2022-10-04T16:20:27.729Z,101383.25
2022-10-04T16:23:25.178Z,101390.38
2022-10-04T16:25:54.826Z,101392.69
2022-10-04T16:28:28.287Z,101388.91
2022-10-04T16:31:20.375Z,101393.09
2022-10-04T16:33:55.612Z,101392.34
2022-10-04T16:36:23.868Z,101379.53
2022-10-04T16:39:12.677Z,101368.00
2022-10-04T16:41:44.499Z,101379.66
2022-10-04T16:44:27.741Z,101355.88
2022-10-04T16:46:55.769Z,101364.50
2022-10-04T16:49:26.026Z,101372.72
2022-10-04T16:52:18.707Z,101369.78
2022-10-04T16:54:58.812Z,101365.59
2022-10-04T16:57:28.655Z,101368.41
2022-10-04T17:00:05.161Z,101368.53
2022-10-04T17:02:49.195Z,101363.22
2022-10-04T17:05:42.388Z,101359.56
2022-10-04T17:08:41.825Z,101358.91
2022-10-04T17:11:18.973Z,101359.91
2022-10-04T17:13:56.908Z,101360.97
2022-10-04T17:16:29.109Z,101327.44
2022-10-04T17:19:16.071Z,101345.53
2022-10-04T17:21:48.049Z,101351.06
2022-10-04T17:24:22.164Z,101345.41
2022-10-04T17:26:58.985Z,101343.72
2022-10-04T17:29:38.112Z,101339.28
2022-10-04T17:32:16.373Z,101336.50
2022-10-04T17:34:52.133Z,101334.88
2022-10-04T17:37:24.917Z,101329.16
2022-10-04T17:39:54.749Z,101340.59
2022-10-04T17:42:30.793Z,101340.69
2022-10-04T17:45:32.420Z,101336.28
2022-10-04T17:48:16.705Z,101337.50
2022-10-04T17:51:20.485Z,101339.66
2022-10-04T17:54:07.499Z,101333.50
2022-10-04T17:56:37.889Z,101315.81
2022-10-04T17:59:08.756Z,101329.63
2022-10-04T18:01:41.091Z,101338.34
2022-10-04T18:04:10.192Z,101341.06
2022-10-04T18:06:40.870Z,101335.53
2022-10-04T18:09:16.096Z,101332.63
2022-10-04T18:11:48.630Z,101320.13
2022-10-04T18:14:39.569Z,101318.28
2022-10-04T18:17:10.164Z,101314.75
2022-10-04T18:19:41.718Z,101323.78
2022-10-04T18:22:15.050Z,101322.06
2022-10-04T18:24:43.882Z,101318.53
2022-10-04T18:27:19.659Z,101325.63
2022-10-04T18:30:00.703Z,101319.81
2022-10-04T18:32:36.754Z,101314.84
2022-10-04T18:35:25.159Z,101305.88
2022-10-04T18:37:53.596Z,101308.25
2022-10-04T18:40:22.548Z,101315.25
2022-10-04T18:42:53.429Z,101315.16
2022-10-04T18:45:23.664Z,101309.78
2022-10-04T18:47:53.302Z,101305.22
2022-10-04T18:50:31.820Z,101315.66
2022-10-04T18:53:11.095Z,101315.66
2022-10-04T18:55:42.136Z,101309.84
2022-10-04T18:58:36.038Z,101313.63
2022-10-04T19:01:29.558Z,101300.22
2022-10-04T19:04:01.201Z,101296.03
2022-10-04T19:06:30.861Z,101283.13
2022-10-04T19:09:04.164Z,101302.72
2022-10-04T19:11:35.933Z,101312.44
2022-10-04T19:14:08.388Z,101308.97
2022-10-04T19:16:41.783Z,101299.81
2022-10-04T19:19:20.850Z,101297.03
2022-10-04T19:21:50.854Z,101295.63
2022-10-04T19:24:42.064Z,101297.31
2022-10-04T19:27:18.381Z,101291.06
2022-10-04T19:29:57.105Z,101282.88
2022-10-04T19:32:29.455Z,101268.44
2022-10-04T19:35:03.176Z,101299.16
2022-10-04T19:37:32.948Z,101289.56
2022-10-04T19:40:04.376Z,101283.84
2022-10-04T19:42:36.142Z,101270.91
2022-10-04T19:45:12.558Z,101272.44
2022-10-04T19:47:44.194Z,101284.81
2022-10-04T19:50:21.232Z,101277.47
2022-10-04T19:52:53.479Z,101284.59
2022-10-04T19:55:23.216Z,101280.06
2022-10-04T19:57:53.572Z,101279.94
2022-10-04T20:00:22.219Z,101277.03
2022-10-04T20:02:50.353Z,101275.28
2022-10-04T20:05:25.108Z,101276.91
2022-10-04T20:07:54.696Z,101271.75
2022-10-04T20:10:33.567Z,101269.06
2022-10-04T20:13:24.435Z,101266.44
2022-10-04T20:16:01.277Z,101259.22
2022-10-04T20:19:00.559Z,101259.34
2022-10-04T20:21:34.047Z,101253.81
2022-10-04T20:24:02.525Z,101250.25
2022-10-04T20:27:03.351Z,101257.47
2022-10-04T20:30:09.757Z,101250.16
2022-10-04T20:32:57.741Z,101248.66
2022-10-04T20:36:11.291Z,101235.06
2022-10-04T20:38:54.608Z,101218.56
2022-10-04T20:42:02.157Z,101233.59
2022-10-04T20:44:55.404Z,101240.91
2022-10-04T20:47:40.266Z,101237.56
2022-10-04T20:50:30.172Z,101239.19
2022-10-04T20:53:08.490Z,101224.97
2022-10-04T20:55:40.783Z,101221.94
2022-10-04T20:58:24.325Z,101222.00
2022-10-04T21:00:53.324Z,101230.09
2022-10-04T21:03:21.777Z,101222.88
2022-10-04T21:06:01.124Z,101215.78
2022-10-04T21:08:29.165Z,101204.59
2022-10-04T21:11:06.279Z,101216.63
2022-10-04T21:13:44.920Z,101211.56
2022-10-04T21:16:12.916Z,101216.13
2022-10-04T21:18:40.841Z,101197.59
2022-10-04T21:21:10.727Z,101214.91
2022-10-04T21:23:38.721Z,101210.47
2022-10-04T21:26:26.115Z,101200.44
2022-10-04T21:28:54.221Z,101205.97
2022-10-04T21:31:22.190Z,101202.38
2022-10-04T21:33:50.099Z,101188.91
2022-10-04T21:36:18.045Z,101198.72
2022-10-04T21:38:45.941Z,101192.34
2022-10-04T21:41:13.831Z,101182.88
2022-10-04T21:43:43.096Z,101180.81
2022-10-04T21:46:11.019Z,101172.72
2022-10-04T21:48:38.998Z,101171.88
2022-10-04T21:51:06.901Z,101164.63
2022-10-04T21:53:34.867Z,101162.06
2022-10-04T21:56:03.403Z,101160.97
2022-10-04T21:58:31.308Z,101163.88
2022-10-04T22:01:00.715Z,101158.75
2022-10-04T22:03:28.685Z,101160.44
2022-10-04T22:05:56.572Z,101159.38
2022-10-04T22:08:24.620Z,101155.69
2022-10-04T22:10:57.453Z,101157.53
2022-10-04T22:13:26.832Z,101162.81
2022-10-04T22:15:55.240Z,101162.69
2022-10-04T22:18:24.556Z,101150.94
2022-10-04T22:20:52.468Z,101127.91
2022-10-04T22:23:21.561Z,101131.81
2022-10-04T22:25:49.576Z,101149.09
2022-10-04T22:28:20.552Z,101145.31
2022-10-04T22:30:49.540Z,101153.28
2022-10-04T22:33:28.014Z,101142.28
2022-10-04T22:35:57.470Z,101135.00
2022-10-04T22:38:25.569Z,101126.19
2022-10-04T22:40:53.474Z,101132.31
2022-10-04T22:43:21.409Z,101125.31
2022-10-04T22:45:49.420Z,101124.34
2022-10-04T22:48:17.339Z,101115.38
2022-10-04T22:50:46.650Z,101111.81
2022-10-04T22:53:17.356Z,101112.31
2022-10-04T22:55:45.253Z,101097.34
2022-10-04T22:58:13.519Z,101113.88
2022-10-04T23:00:41.505Z,101113.47
2022-10-04T23:03:17.485Z,101111.97
2022-10-04T23:05:46.769Z,101103.38
2022-10-04T23:08:14.825Z,101099.19
2022-10-04T23:10:42.743Z,101092.41
2022-10-04T23:13:13.569Z,101095.34
2022-10-04T23:15:42.018Z,101089.56
2022-10-04T23:18:14.425Z,101095.16
2022-10-04T23:20:42.631Z,101087.28
2022-10-04T23:23:17.128Z,101089.16
2022-10-04T23:25:47.043Z,101082.25
2022-10-04T23:28:15.872Z,101075.16
2022-10-04T23:30:44.140Z,101075.16
2022-10-04T23:33:14.704Z,101074.41
2022-10-04T23:35:42.622Z,101072.47
2022-10-04T23:38:14.109Z,101052.41
2022-10-04T23:40:41.989Z,101068.78
2022-10-04T23:43:11.094Z,101054.47
2022-10-04T23:45:42.127Z,101057.03
2022-10-04T23:48:10.176Z,101052.59
2022-10-04T23:50:38.479Z,101048.09
2022-10-04T23:53:07.475Z,101049.81
2022-10-04T23:55:37.508Z,101048.22
2022-10-04T23:58:08.662Z,101030.31
